createdAt,value
2023-04-11T00:01:59.905Z,8.14
2023-04-11T00:05:03.440Z,8.08
2023-04-11T00:08:06.392Z,8.06
2023-04-11T00:11:09.460Z,7.99
2023-04-11T00:14:12.739Z,7.93
2023-04-11T00:17:17.804Z,7.86
2023-04-11T00:20:21.002Z,7.79
2023-04-11T00:23:23.968Z,7.68
2023-04-11T00:26:26.609Z,7.55
2023-04-11T00:29:29.583Z,7.43
2023-04-11T00:32:32.311Z,7.38
2023-04-11T00:35:37.859Z,7.38
2023-04-11T00:38:40.502Z,7.15
2023-04-11T00:41:44.260Z,7.04
2023-04-11T00:44:47.097Z,7.00
2023-04-11T00:47:51.314Z,6.89
2023-04-11T00:50:55.475Z,6.90
2023-04-11T00:53:58.548Z,6.78
2023-04-11T00:57:03.412Z,6.88
2023-04-11T01:00:09.997Z,6.90
2023-04-11T01:03:12.809Z,6.84
2023-04-11T01:06:19.547Z,6.73
2023-04-11T01:09:26.813Z,6.63
2023-04-11T01:12:30.854Z,6.28
2023-04-11T01:15:33.853Z,6.18
2023-04-11T01:18:37.586Z,6.17
2023-04-11T01:21:41.186Z,6.19
2023-04-11T01:24:45.025Z,6.06
2023-04-11T01:27:48.518Z,5.95
2023-04-11T01:30:52.349Z,5.91
2023-04-11T01:33:55.412Z,5.92
2023-04-11T01:36:58.685Z,6.15
2023-04-11T01:40:02.212Z,6.12
2023-04-11T01:43:08.226Z,6.11
2023-04-11T01:46:11.599Z,5.89
2023-04-11T01:49:18.891Z,5.81
2023-04-11T01:52:23.204Z,5.71
2023-04-11T01:55:26.359Z,5.61
2023-04-11T01:58:29.588Z,5.56
2023-04-11T02:01:32.613Z,5.44
2023-04-11T02:04:35.667Z,5.40
2023-04-11T02:07:38.329Z,5.32
2023-04-11T02:10:41.872Z,5.28
2023-04-11T02:13:44.654Z,5.34
2023-04-11T02:16:55.442Z,5.36
2023-04-11T02:19:58.420Z,5.37
2023-04-11T02:23:04.468Z,5.33
2023-04-11T02:26:07.486Z,5.26
2023-04-11T02:29:10.176Z,5.21
2023-04-11T02:32:13.285Z,5.11
2023-04-11T02:35:16.756Z,5.06
2023-04-11T02:38:20.003Z,4.99
2023-04-11T02:41:22.690Z,5.02
2023-04-11T02:44:26.451Z,4.95
2023-04-11T02:47:30.470Z,4.85
2023-04-11T02:50:34.633Z,4.79
2023-04-11T02:53:37.576Z,4.70
2023-04-11T02:56:41.238Z,4.57
2023-04-11T02:59:43.836Z,4.49
2023-04-11T03:02:49.168Z,4.57
2023-04-11T03:05:52.642Z,4.53
2023-04-11T03:08:56.963Z,4.57
2023-04-11T03:12:01.346Z,4.55
2023-04-11T03:15:05.456Z,4.44
2023-04-11T03:18:08.175Z,4.38
2023-04-11T03:21:12.566Z,4.31
2023-04-11T03:24:16.004Z,4.30
2023-04-11T03:27:18.998Z,4.26
2023-04-11T03:30:22.740Z,4.22
2023-04-11T03:33:25.791Z,4.25
2023-04-11T03:36:28.633Z,4.17
2023-04-11T03:39:36.974Z,4.15
2023-04-11T03:42:39.787Z,4.20
2023-04-11T03:45:43.847Z,4.10
2023-04-11T03:48:47.402Z,3.93
2023-04-11T03:51:51.101Z,3.96
2023-04-11T03:54:54.254Z,3.88
2023-04-11T03:57:59.103Z,3.85
2023-04-11T04:01:03.498Z,3.80
2023-04-11T04:04:07.806Z,3.77
2023-04-11T04:07:11.519Z,3.88
2023-04-11T04:10:15.859Z,3.82
2023-04-11T04:13:19.469Z,3.88
2023-04-11T04:16:23.324Z,3.77
2023-04-11T04:19:26.676Z,3.86
2023-04-11T04:22:32.437Z,3.90
2023-04-11T04:25:36.281Z,3.83
2023-04-11T04:28:41.091Z,3.75
2023-04-11T04:31:44.863Z,3.74
2023-04-11T04:34:55.414Z,3.73
2023-04-11T04:38:06.240Z,3.79
2023-04-11T04:41:22.176Z,3.83
2023-04-11T04:44:25.817Z,3.91
2023-04-11T04:47:34.040Z,4.06
2023-04-11T04:50:37.011Z,4.14
2023-04-11T04:53:40.091Z,4.13
2023-04-11T04:56:44.042Z,4.23
2023-04-11T04:59:47.703Z,4.39
2023-04-11T05:02:50.731Z,4.46
2023-04-11T05:05:53.922Z,4.54
2023-04-11T05:08:58.705Z,4.66
2023-04-11T05:12:02.322Z,4.68
2023-04-11T05:15:09.714Z,4.72
2023-04-11T05:18:12.953Z,4.87
2023-04-11T05:21:15.923Z,5.08
2023-04-11T05:24:19.473Z,5.28
2023-04-11T05:27:22.180Z,5.47
2023-04-11T05:30:25.445Z,5.64
2023-04-11T05:33:28.542Z,5.87
2023-04-11T05:36:32.431Z,6.17
2023-04-11T05:39:36.843Z,6.43
2023-04-11T05:42:39.739Z,6.67
2023-04-11T05:45:47.563Z,6.98
2023-04-11T05:48:51.756Z,7.21
2023-04-11T05:51:54.567Z,7.46
2023-04-11T05:54:57.498Z,7.79
2023-04-11T05:58:00.210Z,8.17
2023-04-11T06:01:03.225Z,8.44
2023-04-11T06:04:06.376Z,8.65
2023-04-11T06:07:09.364Z,8.99
2023-04-11T06:10:12.354Z,9.28
2023-04-11T06:13:15.003Z,9.40
2023-04-11T06:16:18.185Z,9.56
2023-04-11T06:19:21.044Z,9.56
2023-04-11T06:22:24.048Z,9.74
2023-04-11T06:25:27.218Z,10.14
2023-04-11T06:28:30.112Z,10.55
2023-04-11T06:31:33.611Z,10.49
2023-04-11T06:34:36.705Z,10.37
2023-04-11T06:37:39.367Z,10.61
2023-04-11T06:40:42.355Z,10.87
2023-04-11T06:43:44.907Z,10.99
2023-04-11T06:46:47.836Z,11.33
2023-04-11T06:49:50.652Z,11.37
2023-04-11T06:52:53.769Z,11.35
2023-04-11T06:55:56.420Z,11.42
2023-04-11T06:58:59.318Z,11.56
2023-04-11T07:02:02.212Z,11.87
2023-04-11T07:05:06.547Z,11.98
2023-04-11T07:08:09.276Z,11.74
2023-04-11T07:11:12.197Z,12.10
2023-04-11T07:14:14.761Z,11.85
2023-04-11T07:17:17.652Z,12.14
2023-04-11T07:20:20.305Z,12.81
2023-04-11T07:23:23.958Z,12.63
2023-04-11T07:26:27.418Z,12.72
2023-04-11T07:29:31.015Z,12.91
2023-04-11T07:32:33.724Z,12.91
2023-04-11T07:35:36.681Z,13.04
2023-04-11T07:38:39.452Z,13.43
2023-04-11T07:41:42.368Z,13.41
2023-04-11T07:44:45.005Z,13.32
2023-04-11T07:47:48.478Z,13.49
2023-04-11T07:50:51.342Z,13.58
2023-04-11T07:53:54.637Z,13.55
2023-04-11T07:56:57.821Z,13.68
2023-04-11T08:00:00.975Z,13.81
2023-04-11T08:03:09.104Z,13.90
2023-04-11T08:06:12.818Z,14.08
2023-04-11T08:09:15.682Z,14.20
2023-04-11T08:12:18.731Z,14.32
2023-04-11T08:15:21.588Z,14.34
2023-04-11T08:18:25.576Z,14.44
2023-04-11T08:21:28.313Z,14.43
2023-04-11T08:24:31.440Z,14.26
2023-04-11T08:27:34.094Z,14.67
2023-04-11T08:30:37.084Z,14.66
2023-04-11T08:33:39.757Z,15.12
2023-04-11T08:36:42.777Z,15.32
2023-04-11T08:39:45.579Z,15.85
2023-04-11T08:42:48.959Z,15.01
2023-04-11T08:45:51.672Z,15.50
2023-04-11T08:48:55.041Z,15.47
2023-04-11T08:51:57.958Z,15.82
2023-04-11T08:55:01.994Z,15.42
2023-04-11T08:58:04.772Z,15.74
2023-04-11T09:01:32.499Z,15.30
2023-04-11T09:04:42.691Z,14.91
2023-04-11T09:07:50.231Z,15.14
2023-04-11T09:11:01.652Z,15.05
2023-04-11T09:14:14.014Z,15.30
2023-04-11T09:17:17.181Z,15.46
2023-04-11T09:20:22.305Z,15.73
2023-04-11T09:23:27.162Z,15.77
2023-04-11T09:26:30.578Z,16.24
2023-04-11T09:29:41.876Z,16.30
2023-04-11T09:32:46.248Z,16.24
2023-04-11T09:35:51.259Z,16.35
2023-04-11T09:38:54.707Z,16.27
2023-04-11T09:41:57.481Z,16.18
2023-04-11T09:45:00.532Z,16.14
2023-04-11T09:48:03.774Z,15.73
2023-04-11T09:51:07.367Z,15.77
2023-04-11T09:54:12.108Z,16.09
2023-04-11T09:57:15.372Z,16.24
2023-04-11T10:00:21.865Z,16.49
2023-04-11T10:03:26.564Z,17.10
2023-04-11T10:06:41.424Z,17.25
2023-04-11T10:09:46.013Z,16.96
2023-04-11T10:12:49.550Z,16.96
2023-04-11T10:16:09.108Z,16.97
2023-04-11T10:19:18.170Z,17.02
2023-04-11T10:22:41.156Z,16.99
2023-04-11T10:25:51.013Z,17.10
2023-04-11T10:28:54.066Z,17.23
2023-04-11T10:32:15.802Z,16.71
2023-04-11T10:35:18.624Z,16.25
2023-04-11T10:38:39.945Z,16.26
2023-04-11T10:41:42.997Z,16.53
2023-04-11T10:44:46.564Z,17.08
2023-04-11T10:47:52.483Z,17.41
2023-04-11T10:50:56.330Z,17.46
2023-04-11T10:54:00.555Z,17.11
2023-04-11T10:57:03.523Z,17.36
2023-04-11T11:00:13.443Z,16.86
2023-04-11T11:03:23.950Z,16.56
2023-04-11T11:06:27.042Z,16.40
2023-04-11T11:09:30.821Z,16.32
2023-04-11T11:12:33.775Z,16.72
2023-04-11T11:15:39.961Z,16.89
2023-04-11T11:18:51.045Z,16.89
2023-04-11T11:21:53.794Z,16.90
2023-04-11T11:25:07.684Z,16.32
2023-04-11T11:28:10.268Z,16.29
2023-04-11T11:31:13.869Z,16.60
2023-04-11T11:34:28.026Z,16.45
2023-04-11T11:37:31.518Z,16.66
2023-04-11T11:40:34.461Z,16.75
2023-04-11T11:43:37.914Z,17.10
2023-04-11T11:47:00.751Z,17.10
2023-04-11T11:50:04.002Z,16.75
2023-04-11T11:53:15.190Z,16.66
2023-04-11T11:56:19.489Z,16.34
2023-04-11T11:59:31.164Z,16.89
2023-04-11T12:02:36.315Z,17.29
2023-04-11T12:05:41.615Z,17.18
2023-04-11T12:08:50.040Z,16.92
2023-04-11T12:11:54.915Z,16.98
2023-04-11T12:14:57.502Z,16.85
2023-04-11T12:18:00.604Z,16.94
2023-04-11T12:21:03.591Z,17.47
2023-04-11T12:24:07.138Z,17.94
2023-04-11T12:27:14.282Z,17.91
2023-04-11T12:30:17.843Z,17.50
2023-04-11T12:33:21.177Z,17.72
2023-04-11T12:36:24.147Z,17.90
2023-04-11T12:39:27.383Z,18.02
2023-04-11T12:42:30.897Z,17.66
2023-04-11T12:45:34.103Z,16.90
2023-04-11T12:48:37.292Z,16.72
2023-04-11T12:51:40.067Z,16.50
2023-04-11T12:54:42.986Z,17.03
2023-04-11T12:57:45.674Z,17.20
2023-04-11T13:00:48.592Z,17.54
2023-04-11T13:03:51.621Z,17.83
2023-04-11T13:06:54.820Z,17.58
2023-04-11T13:09:57.501Z,17.33
2023-04-11T13:13:08.418Z,17.39
2023-04-11T13:16:19.982Z,17.57
2023-04-11T13:19:23.835Z,17.56
2023-04-11T13:22:27.276Z,17.59
2023-04-11T13:25:30.522Z,17.61
2023-04-11T13:28:38.990Z,17.06
2023-04-11T13:31:42.233Z,17.09
2023-04-11T13:34:45.015Z,17.30
2023-04-11T13:37:49.863Z,17.15
2023-04-11T13:40:52.958Z,17.11
2023-04-11T13:43:56.101Z,17.11
2023-04-11T13:46:59.399Z,17.14
2023-04-11T13:50:02.402Z,17.08
2023-04-11T13:53:05.230Z,17.36
2023-04-11T13:56:08.566Z,17.35
2023-04-11T13:59:11.654Z,17.06
2023-04-11T14:02:14.742Z,17.38
2023-04-11T14:05:18.853Z,17.31
2023-04-11T14:08:21.568Z,17.24
2023-04-11T14:11:24.582Z,17.15
2023-04-11T14:14:27.516Z,17.39
2023-04-11T14:17:30.481Z,17.73
2023-04-11T14:20:33.359Z,17.77
2023-04-11T14:23:36.961Z,17.59
2023-04-11T14:26:39.681Z,17.53
2023-04-11T14:29:42.774Z,17.36
2023-04-11T14:32:45.825Z,17.52
2023-04-11T14:35:50.471Z,17.62
2023-04-11T14:38:53.176Z,17.46
2023-04-11T14:41:56.485Z,17.18
2023-04-11T14:44:59.181Z,17.13
2023-04-11T14:48:02.466Z,17.21
2023-04-11T14:51:05.638Z,17.38
2023-04-11T14:54:08.785Z,17.11
2023-04-11T14:57:11.597Z,17.20
2023-04-11T15:00:19.889Z,17.23
2023-04-11T15:03:23.436Z,17.10
2023-04-11T15:06:26.758Z,17.14
2023-04-11T15:09:29.629Z,17.04
2023-04-11T15:12:32.581Z,16.95
2023-04-11T15:15:35.417Z,17.04
2023-04-11T15:18:40.584Z,16.98
2023-04-11T15:21:43.282Z,17.13
2023-04-11T15:24:46.256Z,17.29
2023-04-11T15:27:50.592Z,17.58
2023-04-11T15:30:54.596Z,17.68
2023-04-11T15:33:59.856Z,17.98
2023-04-11T15:37:02.883Z,17.98
2023-04-11T15:40:06.384Z,17.80
2023-04-11T15:43:09.991Z,18.07
2023-04-11T15:46:12.605Z,17.76
2023-04-11T15:49:16.219Z,17.99
2023-04-11T15:52:21.328Z,17.68
2023-04-11T15:55:24.421Z,17.84
2023-04-11T15:58:27.780Z,17.86
2023-04-11T16:01:32.687Z,17.52
2023-04-11T16:04:39.083Z,17.18
2023-04-11T16:07:43.749Z,16.91
2023-04-11T16:10:47.081Z,16.76
2023-04-11T16:13:50.102Z,16.55
2023-04-11T16:16:53.110Z,16.53
2023-04-11T16:19:55.980Z,16.44
2023-04-11T16:22:59.049Z,16.51
2023-04-11T16:26:01.678Z,16.44
2023-04-11T16:29:04.566Z,16.42
2023-04-11T16:32:07.824Z,16.28
2023-04-11T16:35:11.323Z,16.22
2023-04-11T16:38:13.951Z,16.17
2023-04-11T16:41:17.563Z,16.15
2023-04-11T16:44:21.508Z,16.01
2023-04-11T16:47:26.286Z,15.96
2023-04-11T16:50:29.133Z,15.86
2023-04-11T16:53:32.098Z,15.75
2023-04-11T16:56:34.824Z,15.63
2023-04-11T16:59:39.510Z,15.57
2023-04-11T17:02:42.722Z,15.51
2023-04-11T17:05:46.098Z,15.45
2023-04-11T17:08:49.073Z,15.40
2023-04-11T17:11:52.004Z,15.28
2023-04-11T17:14:56.090Z,15.30
2023-04-11T17:17:58.967Z,15.22
2023-04-11T17:21:01.774Z,15.10
2023-04-11T17:24:04.832Z,14.88
2023-04-11T17:27:07.649Z,14.71
2023-04-11T17:30:12.400Z,14.64
2023-04-11T17:33:18.999Z,14.44
2023-04-11T17:36:21.924Z,14.26
2023-04-11T17:39:24.598Z,14.09
2023-04-11T17:42:27.531Z,14.03
2023-04-11T17:45:30.200Z,13.89
2023-04-11T17:48:33.239Z,13.80
2023-04-11T17:51:38.806Z,13.76
2023-04-11T17:54:46.331Z,13.71
2023-04-11T17:57:49.277Z,13.67
2023-04-11T18:00:56.134Z,13.63
2023-04-11T18:04:01.876Z,13.58
2023-04-11T18:07:06.938Z,13.58
2023-04-11T18:10:11.191Z,13.51
2023-04-11T18:13:13.884Z,13.50
2023-04-11T18:16:17.241Z,13.37
2023-04-11T18:19:19.923Z,13.45
2023-04-11T18:22:23.144Z,13.44
2023-04-11T18:25:25.819Z,13.48
2023-04-11T18:28:29.334Z,13.51
2023-04-11T18:31:35.553Z,13.45
2023-04-11T18:34:38.605Z,13.47
2023-04-11T18:37:42.563Z,13.43
2023-04-11T18:40:46.055Z,13.40
2023-04-11T18:43:48.925Z,13.36
2023-04-11T18:46:54.476Z,13.33
2023-04-11T18:49:58.308Z,13.25
2023-04-11T18:53:05.143Z,13.24
2023-04-11T18:56:09.219Z,13.25
2023-04-11T18:59:14.873Z,13.07
2023-04-11T19:02:19.428Z,13.15
2023-04-11T19:05:25.589Z,13.10
2023-04-11T19:08:28.632Z,13.02
2023-04-11T19:11:31.911Z,13.01
2023-04-11T19:14:35.564Z,12.92
2023-04-11T19:17:39.291Z,12.96
2023-04-11T19:20:42.731Z,12.86
2023-04-11T19:23:46.547Z,12.82
2023-04-11T19:26:49.185Z,12.77
2023-04-11T19:29:52.262Z,12.74
2023-04-11T19:32:56.379Z,12.68
2023-04-11T19:35:59.625Z,12.65
2023-04-11T19:39:02.578Z,12.55
2023-04-11T19:42:08.700Z,12.55
2023-04-11T19:45:12.207Z,12.43
2023-04-11T19:48:16.306Z,12.37
2023-04-11T19:51:19.366Z,12.29
2023-04-11T19:54:23.269Z,12.19
2023-04-11T19:57:27.142Z,12.08
2023-04-11T20:00:34.667Z,11.97
2023-04-11T20:03:38.463Z,11.90
2023-04-11T20:06:44.033Z,11.84
2023-04-11T20:09:47.546Z,11.78
2023-04-11T20:12:52.482Z,11.68
2023-04-11T20:15:55.778Z,11.65
2023-04-11T20:18:58.398Z,11.63
2023-04-11T20:22:02.983Z,11.60
2023-04-11T20:25:11.583Z,11.50
2023-04-11T20:28:15.053Z,11.47
2023-04-11T20:31:17.993Z,11.42
2023-04-11T20:34:21.006Z,11.37
2023-04-11T20:37:23.630Z,11.28
2023-04-11T20:40:26.856Z,11.26
2023-04-11T20:43:29.963Z,11.29
2023-04-11T20:46:33.648Z,11.21
2023-04-11T20:49:36.294Z,11.11
2023-04-11T20:52:41.293Z,11.07
2023-04-11T20:55:43.871Z,11.03
2023-04-11T20:58:46.929Z,11.07
2023-04-11T21:01:50.275Z,11.02
2023-04-11T21:04:54.275Z,11.01
2023-04-11T21:07:58.373Z,11.00
2023-04-11T21:11:02.087Z,10.92
2023-04-11T21:14:05.245Z,10.97
2023-04-11T21:17:09.190Z,10.89
2023-04-11T21:20:20.379Z,10.89
2023-04-11T21:23:23.426Z,10.84
2023-04-11T21:26:26.222Z,10.84
2023-04-11T21:29:29.380Z,10.83
2023-04-11T21:32:32.839Z,10.75
2023-04-11T21:35:36.036Z,10.67
2023-04-11T21:38:38.706Z,10.76
2023-04-11T21:41:41.885Z,10.65
2023-04-11T21:44:44.591Z,10.60
2023-04-11T21:47:47.486Z,10.50
2023-04-11T21:50:51.751Z,10.43
2023-04-11T21:53:54.879Z,10.43
2023-04-11T21:56:57.702Z,10.33
2023-04-11T22:00:00.904Z,10.39
2023-04-11T22:03:03.975Z,10.31
2023-04-11T22:06:07.752Z,10.31
2023-04-11T22:09:10.562Z,10.14
2023-04-11T22:12:17.891Z,10.12
2023-04-11T22:15:20.743Z,10.28
2023-04-11T22:18:27.083Z,10.14
2023-04-11T22:21:32.526Z,10.05
2023-04-11T22:24:38.362Z,10.11
2023-04-11T22:27:41.011Z,10.04
2023-04-11T22:30:46.645Z,10.00
2023-04-11T22:33:49.768Z,10.06
2023-04-11T22:36:52.829Z,10.07
2023-04-11T22:39:55.794Z,10.16
2023-04-11T22:42:58.870Z,10.21
2023-04-11T22:46:01.592Z,10.28
2023-04-11T22:49:06.716Z,10.29
2023-04-11T22:52:14.124Z,10.27
2023-04-11T22:55:18.186Z,10.34
2023-04-11T22:58:21.000Z,10.30
2023-04-11T23:01:24.304Z,10.26
2023-04-11T23:04:27.114Z,10.26
2023-04-11T23:07:31.494Z,10.19
2023-04-11T23:10:34.660Z,10.13
2023-04-11T23:13:37.701Z,10.09
2023-04-11T23:16:41.982Z,10.04
2023-04-11T23:19:44.979Z,9.85
2023-04-11T23:22:47.833Z,9.85
2023-04-11T23:25:52.378Z,9.68
2023-04-11T23:28:55.563Z,9.68
2023-04-11T23:31:58.747Z,9.62
2023-04-11T23:35:01.675Z,9.65
2023-04-11T23:38:06.010Z,9.52
2023-04-11T23:41:08.919Z,9.37
2023-04-11T23:44:11.930Z,9.25
2023-04-11T23:47:14.596Z,9.23
2023-04-11T23:50:18.141Z,9.17
2023-04-11T23:53:20.828Z,8.99
2023-04-11T23:56:23.866Z,8.90
2023-04-11T23:59:27.162Z,8.80
